Time;durP1;ratioP1;P1;durP2;ratioP2;P2;SDS_P1;SDS_P2;PMS_P1;PMS_P2;Temp;Humidity;BMP_temperature;BMP_pressure;BME280_temperature;BME280_humidity;BME280_pressure;Samples;Min_cycle;Max_cycle;Signal;HPM_P1;HPM_P2
2021/12/19 00:10:20;;;;;;;0.90;0.90;;;16.50;66.80;;;;;;5074405;28;20048;-75
2021/12/19 00:12:47;;;;;;;1.35;0.90;;;16.40;66.80;;;;;;5074411;28;20095;-75
2021/12/19 00:15:14;;;;;;;1.70;1.00;;;;;;;;;;5074149;28;20572;-75
2021/12/19 00:17:41;;;;;;;1.23;0.90;;;15.60;66.20;;;;;;5072072;28;20408;-75
2021/12/19 00:20:08;;;;;;;1.67;1.20;;;16.30;60.90;;;;;;5074130;28;20561;-75
2021/12/19 00:22:35;;;;;;;1.75;1.10;;;16.50;66.60;;;;;;5074056;28;20544;-76
2021/12/19 00:25:02;;;;;;;1.70;1.00;;;16.20;63.80;;;;;;5074291;28;20140;-75
2021/12/19 00:27:30;;;;;;;2.25;1.02;;;16.30;66.70;;;;;;5073779;28;20472;-75
2021/12/19 00:29:57;;;;;;;1.00;0.90;;;16.40;66.50;;;;;;5074218;28;20548;-75
2021/12/19 00:32:24;;;;;;;1.30;1.10;;;;;;;;;;5074065;28;20127;-75
2021/12/19 00:34:51;;;;;;;1.10;1.00;;;16.40;66.80;;;;;;5072195;28;20057;-75
2021/12/19 00:37:19;;;;;;;2.05;1.10;;;16.30;66.40;;;;;;5073421;28;20052;-75
2021/12/19 00:39:45;;;;;;;1.23;1.00;;;17.10;67.00;;;;;;5073164;28;20136;-75
2021/12/19 00:42:14;;;;;;;1.60;0.98;;;16.20;61.50;;;;;;5073940;28;20139;-75
2021/12/19 00:44:42;;;;;;;0.82;0.77;;;16.70;66.80;;;;;;5073639;28;20505;-74
2021/12/19 00:47:09;;;;;;;1.30;1.00;;;16.20;66.40;;;;;;5073780;28;20052;-75
2021/12/19 00:49:36;;;;;;;1.02;0.93;;;15.80;66.20;;;;;;5074028;28;20135;-75
2021/12/19 00:52:05;;;;;;;1.27;1.10;;;15.70;66.30;;;;;;5072568;28;20135;-75
2021/12/19 00:54:31;;;;;;;1.10;0.93;;;16.50;66.80;;;;;;5073598;28;20500;-75
2021/12/19 00:56:58;;;;;;;1.70;1.00;;;15.60;66.30;;;;;;5073496;28;20135;-75
2021/12/19 00:59:25;;;;;;;1.10;0.90;;;16.50;66.70;;;;;;5074873;28;20127;-75
2021/12/19 01:01:53;;;;;;;0.98;0.80;;;16.40;66.40;;;;;;5073738;28;20080;-75
2021/12/19 01:04:20;;;;;;;1.27;0.88;;;17.10;66.80;;;;;;5073842;28;20417;-75
2021/12/19 01:06:47;;;;;;;1.00;0.90;;;16.30;61.90;;;;;;5073350;28;20106;-75
2021/12/19 01:09:14;;;;;;;0.98;0.88;;;16.50;66.50;;;;;;5073135;28;20123;-75
2021/12/19 01:11:41;;;;;;;1.17;0.80;;;16.40;66.70;;;;;;5073595;28;20469;-74
2021/12/19 01:14:08;;;;;;;1.63;1.00;;;16.40;66.70;;;;;;5073704;28;20106;-75
2021/12/19 01:16:34;;;;;;;1.67;1.10;;;16.40;66.50;;;;;;5072864;28;20125;-75
2021/12/19 01:19:02;;;;;;;1.13;1.02;;;16.30;66.70;;;;;;5056990;28;20142;-75
2021/12/19 01:21:29;;;;;;;0.80;0.80;;;;;;;;;;5073436;28;20139;-75
2021/12/19 01:23:56;;;;;;;1.27;0.90;;;15.70;66.10;;;;;;5073109;28;20139;-75
2021/12/19 01:26:23;;;;;;;1.35;1.17;;;16.40;66.80;;;;;;5071429;28;20135;-75
2021/12/19 01:28:50;;;;;;;1.60;1.10;;;16.90;64.60;;;;;;5073290;28;20139;-75
2021/12/19 01:31:16;;;;;;;1.10;1.00;;;16.30;66.50;;;;;;5073030;28;20128;-75
2021/12/19 01:33:43;;;;;;;1.05;0.95;;;16.50;66.50;;;;;;5073009;28;20131;-75
2021/12/19 01:36:12;;;;;;;1.02;0.95;;;17.10;66.90;;;;;;5072748;28;20136;-75
2021/12/19 01:38:39;;;;;;;1.80;1.00;;;16.40;66.50;;;;;;5072388;28;20072;-75
2021/12/19 01:41:05;;;;;;;1.50;1.10;;;17.20;66.80;;;;;;5071555;28;20147;-75
2021/12/19 01:43:32;;;;;;;1.88;1.30;;;16.20;64.40;;;;;;5072510;28;20135;-75
2021/12/19 01:45:59;;;;;;;1.45;1.10;;;17.10;66.90;;;;;;5072401;28;20135;-75
2021/12/19 01:48:26;;;;;;;0.90;0.90;;;;;;;;;;5072822;28;20136;-74
2021/12/19 01:50:53;;;;;;;0.88;0.88;;;15.70;66.40;;;;;;5071477;28;20135;-75
2021/12/19 01:53:21;;;;;;;1.42;1.00;;;16.30;60.80;;;;;;5072812;28;20075;-74
2021/12/19 01:55:48;;;;;;;1.48;1.02;;;16.30;60.70;;;;;;5072386;28;20135;-73
2021/12/19 01:58:16;;;;;;;0.90;0.90;;;16.40;66.40;;;;;;5070346;28;20128;-73
2021/12/19 02:00:45;;;;;;;1.85;1.15;;;16.40;62.30;;;;;;5072040;28;20056;-75
2021/12/19 02:03:12;;;;;;;1.13;0.85;;;15.70;66.10;;;;;;5072292;28;20063;-75
2021/12/19 02:05:38;;;;;;;2.22;1.00;;;16.50;66.70;;;;;;5071918;28;20136;-75
2021/12/19 02:08:05;;;;;;;1.63;1.20;;;15.80;66.10;;;;;;5072060;28;20049;-75
2021/12/19 02:10:34;;;;;;;1.50;1.05;;;16.80;66.80;;;;;;5072200;28;20076;-73
2021/12/19 02:13:01;;;;;;;1.08;0.98;;;16.30;60.70;;;;;;5071769;28;20139;-74
2021/12/19 02:15:29;;;;;;;1.38;1.00;;;16.40;66.60;;;;;;5070971;28;20049;-75
2021/12/19 02:17:57;;;;;;;1.23;0.95;;;16.40;66.60;;;;;;5071852;28;20083;-75
2021/12/19 02:20:26;;;;;;;1.48;0.90;;;16.30;66.30;;;;;;5071558;28;20132;-75
2021/12/19 02:22:53;;;;;;;1.02;0.93;;;;;;;;;;5071914;28;20127;-73
2021/12/19 02:25:20;;;;;;;1.20;0.90;;;16.50;66.50;;;;;;5071914;28;20052;-75
2021/12/19 02:27:46;;;;;;;1.13;0.90;;;16.40;66.60;;;;;;5071783;28;20083;-75
2021/12/19 02:30:13;;;;;;;0.70;0.70;;;17.20;63.30;;;;;;5071870;28;20441;-75
2021/12/19 02:32:41;;;;;;;1.83;1.00;;;16.50;66.80;;;;;;5063601;28;20505;-75
2021/12/19 02:35:10;;;;;;;1.33;1.00;;;16.40;65.40;;;;;;5052131;28;20409;-75
2021/12/19 02:38:09;;;;;;;1.17;0.90;;;16.30;60.70;;;;;;5051281;28;20060;-73
2021/12/19 02:48:10;;;;;;;0.70;0.70;;;16.30;66.50;;;;;;5051716;28;20084;-74
2021/12/19 02:48:56;;;;;;;1.10;0.90;;;15.60;66.20;;;;;;5052394;28;20401;-75
2021/12/19 02:51:24;;;;;;;0.85;0.85;;;16.30;66.40;;;;;;5051414;28;20064;-75
2021/12/19 02:53:52;;;;;;;1.45;0.93;;;17.20;67.20;;;;;;5051217;28;20076;-75
2021/12/19 02:56:19;;;;;;;1.65;1.10;;;16.40;66.50;;;;;;5052065;28;20474;-75
2021/12/19 02:58:46;;;;;;;1.20;0.88;;;16.20;65.40;;;;;;5050941;28;20131;-75
2021/12/19 03:01:14;;;;;;;1.00;0.90;;;16.50;66.70;;;;;;5051024;28;20132;-75
2021/12/19 03:03:41;;;;;;;0.85;0.77;;;16.40;66.70;;;;;;5051311;28;20131;-75
2021/12/19 03:06:08;;;;;;;1.33;0.70;;;;;;;;;;5052141;28;20140;-75
2021/12/19 03:08:36;;;;;;;0.77;0.68;;;16.50;66.50;;;;;;5050842;28;20124;-75
2021/12/19 03:19:13;;;;;;;0.70;0.70;;;16.50;66.40;;;;;;5050853;28;20049;-75
2021/12/19 03:21:41;;;;;;;1.40;0.80;;;16.40;66.40;;;;;;5050657;28;20122;-75
2021/12/19 03:24:08;;;;;;;1.60;0.90;;;16.00;66.40;;;;;;5052335;28;20063;-75
2021/12/19 03:26:36;;;;;;;0.77;0.70;;;15.60;63.80;;;;;;5051032;28;20081;-75
2021/12/19 03:29:03;;;;;;;0.82;0.70;;;15.80;63.60;;;;;;5051147;28;20084;-75
2021/12/19 03:31:30;;;;;;;0.70;0.70;;;16.40;66.60;;;;;;5056659;28;20136;-75
2021/12/19 03:33:57;;;;;;;1.38;0.80;;;15.60;63.10;;;;;;5059819;28;20143;-75
2021/12/19 03:36:24;;;;;;;0.90;0.80;;;16.30;66.30;;;;;;5050344;28;20059;-75
2021/12/19 03:38:57;;;;;;;1.33;0.80;;;;;;;;;;5035614;28;20481;-74
2021/12/19 03:41:33;;;;;;;1.00;0.80;;;16.30;66.30;;;;;;5051853;28;20063;-75
2021/12/19 03:44:01;;;;;;;0.65;0.65;;;17.20;66.70;;;;;;5050875;28;20052;-75
2021/12/19 03:46:28;;;;;;;1.23;0.70;;;16.40;66.30;;;;;;5051718;28;20072;-75
2021/12/19 03:48:55;;;;;;;0.70;0.70;;;16.30;66.50;;;;;;5050506;28;20127;-74
2021/12/19 03:51:22;;;;;;;0.85;0.63;;;17.10;67.00;;;;;;5050773;28;20521;-75
2021/12/19 03:53:48;;;;;;;0.57;0.57;;;16.40;66.40;;;;;;5050788;28;20577;-75
2021/12/19 03:56:15;;;;;;;0.70;0.70;;;;;;;;;;5050531;28;20140;-74
2021/12/19 03:58:42;;;;;;;0.77;0.77;;;16.40;66.50;;;;;;5051348;28;20053;-75
2021/12/19 04:01:11;;;;;;;0.82;0.70;;;16.30;60.60;;;;;;5050626;28;20136;-75
2021/12/19 04:03:38;;;;;;;0.93;0.73;;;16.30;62.10;;;;;;5050539;28;20049;-75
2021/12/19 04:06:05;;;;;;;0.68;0.68;;;17.10;66.80;;;;;;5050658;28;20057;-75
2021/12/19 04:08:32;;;;;;;0.60;0.60;;;;;;;;;;5050238;28;20476;-74
2021/12/19 04:10:58;;;;;;;0.75;0.55;;;16.40;66.50;;;;;;5050784;28;20135;-75
2021/12/19 04:13:25;;;;;;;0.75;0.60;;;15.80;66.10;;;;;;5052344;28;20132;-75
2021/12/19 04:15:52;;;;;;;1.20;0.60;;;16.50;61.90;;;;;;5053811;28;20141;-75
2021/12/19 04:18:20;;;;;;;0.70;0.70;;;16.30;66.30;;;;;;5054102;28;20529;-75
2021/12/19 04:20:47;;;;;;;0.68;0.60;;;16.10;66.10;;;;;;5054008;28;20131;-75
2021/12/19 04:23:14;;;;;;;1.10;0.70;;;;;;;;;;5054369;28;20480;-74
2021/12/19 04:25:41;;;;;;;0.70;0.70;;;16.20;66.30;;;;;;5053531;28;20128;-74
2021/12/19 04:28:10;;;;;;;0.63;0.63;;;17.00;66.50;;;;;;5053713;28;20156;-74
2021/12/19 04:30:36;;;;;;;1.80;0.70;;;16.70;66.30;;;;;;5054677;28;20507;-74
2021/12/19 04:33:07;;;;;;;0.60;0.60;;;;;;;;;;5053511;28;20080;-74
2021/12/19 04:35:36;;;;;;;0.93;0.63;;;15.60;66.00;;;;;;5053531;28;20088;-74
2021/12/19 04:41:36;;;;;;;0.75;0.70;;;17.10;66.90;;;;;;5053231;28;20049;-74
2021/12/19 04:52:36;;;;;;;0.68;0.45;;;16.30;66.40;;;;;;5054398;28;20099;-74
2021/12/19 04:55:22;;;;;;;0.60;0.60;;;16.10;66.30;;;;;;5053445;28;20084;-74
2021/12/19 04:57:54;;;;;;;0.55;0.55;;;15.60;66.20;;;;;;5053146;28;20075;-74
2021/12/19 05:00:31;;;;;;;2.08;0.70;;;16.20;66.20;;;;;;5053262;28;20206;-74
2021/12/19 05:03:03;;;;;;;0.52;0.50;;;16.30;66.20;;;;;;5052967;28;20426;-74
2021/12/19 05:16:26;;;;;;;1.17;0.63;;;16.40;66.20;;;;;;5052490;28;20052;-74
2021/12/19 05:19:00;;;;;;;0.88;0.70;;;15.80;66.20;;;;;;5052588;28;20102;-74
2021/12/19 05:21:28;;;;;;;1.37;0.87;;;16.20;66.40;;;;;;5053809;28;20060;-74
2021/12/19 05:24:20;;;;;;;1.65;0.80;;;16.20;66.20;;;;;;5052962;28;20061;-74
2021/12/19 05:26:48;;;;;;;1.30;0.75;;;15.60;65.80;;;;;;5052344;28;20498;-74
2021/12/19 05:29:15;;;;;;;1.75;1.05;;;16.20;66.20;;;;;;5052404;28;20107;-74
2021/12/19 05:31:42;;;;;;;1.35;0.80;;;16.20;61.60;;;;;;5052585;28;20494;-74
2021/12/19 05:34:08;;;;;;;1.88;0.80;;;16.50;66.40;;;;;;5052342;28;20058;-74
2021/12/19 05:47:33;;;;;;;1.52;1.08;;;15.60;65.90;;;;;;5052334;28;20049;-74
2021/12/19 05:49:59;;;;;;;2.35;0.85;;;16.30;66.20;;;;;;5052285;28;20421;-74
2021/12/19 05:52:27;;;;;;;0.90;0.70;;;16.90;63.30;;;;;;5051932;28;20137;-74
2021/12/19 05:54:55;;;;;;;1.05;0.95;;;15.80;66.20;;;;;;5053197;28;20068;-74
2021/12/19 05:57:21;;;;;;;2.13;0.98;;;15.30;66.00;;;;;;5051626;28;20075;-74
2021/12/19 05:59:50;;;;;;;1.58;0.88;;;;;;;;;;5051687;28;20132;-74
2021/12/19 06:02:16;;;;;;;1.30;0.80;;;17.10;61.60;;;;;;5052003;28;20057;-74
2021/12/19 06:04:43;;;;;;;1.67;0.95;;;15.60;65.70;;;;;;5051984;28;20088;-74
2021/12/19 06:07:10;;;;;;;1.48;0.82;;;15.90;65.90;;;;;;5051790;28;20049;-74
2021/12/19 06:09:37;;;;;;;3.22;1.00;;;16.40;66.20;;;;;;5051559;28;20462;-74
2021/12/19 06:12:06;;;;;;;1.13;0.82;;;16.40;66.40;;;;;;5052602;28;20132;-74
2021/12/19 06:14:34;;;;;;;1.45;1.00;;;16.20;60.90;;;;;;5051647;28;20507;-74
2021/12/19 06:17:01;;;;;;;1.63;0.93;;;;;;;;;;5051239;28;20059;-74
2021/12/19 06:19:27;;;;;;;1.60;1.00;;;16.00;65.80;;;;;;5051307;28;20565;-74
2021/12/19 06:21:55;;;;;;;1.33;0.90;;;16.20;66.30;;;;;;5051220;28;20515;-74
2021/12/19 06:24:22;;;;;;;1.88;0.90;;;16.30;66.40;;;;;;5051419;28;20136;-74
2021/12/19 06:26:49;;;;;;;1.73;1.02;;;16.20;66.00;;;;;;5051372;28;20087;-74
2021/12/19 06:29:17;;;;;;;1.25;0.95;;;16.10;65.90;;;;;;5052426;28;20088;-72
2021/12/19 06:31:43;;;;;;;2.53;1.13;;;15.90;65.70;;;;;;5051333;28;20079;-72
2021/12/19 06:34:10;;;;;;;1.48;0.93;;;16.00;65.90;;;;;;5051492;28;20132;-72
2021/12/19 06:36:38;;;;;;;1.98;1.10;;;;;;;;;;5050721;28;20413;-74
2021/12/19 06:39:07;;;;;;;1.50;1.15;;;16.60;66.20;;;;;;5051072;28;20107;-73
2021/12/19 06:41:35;;;;;;;3.10;1.05;;;17.00;66.60;;;;;;5051001;28;20131;-72
2021/12/19 06:44:02;;;;;;;1.33;1.00;;;16.30;66.20;;;;;;5051060;28;20111;-72
2021/12/19 06:46:30;;;;;;;1.90;1.00;;;15.90;65.90;;;;;;5052084;28;20077;-72
2021/12/19 06:48:57;;;;;;;1.73;1.10;;;16.30;65.90;;;;;;5051090;28;20051;-72
2021/12/19 06:51:23;;;;;;;1.75;1.20;;;16.30;66.10;;;;;;5050909;28;20132;-74
2021/12/19 06:53:50;;;;;;;2.45;1.30;;;16.30;66.20;;;;;;5051075;28;20140;-72
2021/12/19 06:56:17;;;;;;;2.10;1.30;;;16.30;66.20;;;;;;5050819;28;20136;-72
2021/12/19 06:58:44;;;;;;;2.17;1.23;;;;;;;;;;5050621;28;20060;-72
2021/12/19 07:01:10;;;;;;;1.42;1.10;;;16.30;66.30;;;;;;5051016;28;20494;-72
2021/12/19 07:03:38;;;;;;;1.35;0.98;;;16.00;66.20;;;;;;5052042;28;20135;-72
2021/12/19 07:06:05;;;;;;;1.77;1.25;;;16.30;66.30;;;;;;5050537;28;20139;-72
2021/12/19 07:08:32;;;;;;;1.65;1.10;;;17.00;66.40;;;;;;5050780;28;20134;-73
2021/12/19 07:10:59;;;;;;;2.90;1.38;;;17.10;66.40;;;;;;5050648;28;20140;-72
2021/12/19 07:13:26;;;;;;;2.72;1.40;;;16.10;66.20;;;;;;5050853;28;20140;-72
2021/12/19 07:15:53;;;;;;;1.50;1.13;;;16.30;61.80;;;;;;5050180;28;20133;-72
2021/12/19 07:18:20;;;;;;;2.30;1.30;;;16.40;66.10;;;;;;5050248;28;20152;-73
2021/12/19 07:20:48;;;;;;;2.83;1.35;;;15.60;65.60;;;;;;5051736;28;20055;-72
2021/12/19 07:23:17;;;;;;;2.47;1.38;;;16.30;65.90;;;;;;5050752;28;20127;-72
2021/12/19 07:25:44;;;;;;;2.63;1.35;;;15.90;65.90;;;;;;5050483;28;20139;-72
2021/12/19 07:28:11;;;;;;;1.42;1.08;;;16.20;66.00;;;;;;5050740;28;20081;-72
2021/12/19 07:30:38;;;;;;;2.30;1.20;;;15.80;66.00;;;;;;5068545;28;20480;-72
2021/12/19 07:33:05;;;;;;;1.92;1.10;;;16.10;62.00;;;;;;5070700;28;20053;-72
2021/12/19 07:35:35;;;;;;;3.15;1.55;;;15.80;65.70;;;;;;5063538;28;20132;-72
2021/12/19 07:38:03;;;;;;;2.22;1.20;;;15.70;65.60;;;;;;5050387;28;20048;-72
2021/12/19 07:40:35;;;;;;;1.20;0.95;;;16.40;66.00;;;;;;5050179;28;20076;-72
2021/12/19 07:43:03;;;;;;;1.67;1.10;;;16.30;66.20;;;;;;5050454;28;20052;-72
2021/12/19 07:45:30;;;;;;;2.13;1.05;;;16.30;66.10;;;;;;5050352;28;20457;-72
2021/12/19 07:47:57;;;;;;;2.15;1.20;;;16.40;65.90;;;;;;5050433;28;20132;-72
2021/12/19 07:50:23;;;;;;;2.00;1.10;;;15.60;64.40;;;;;;5054449;28;20120;-72
2021/12/19 07:52:50;;;;;;;2.63;1.30;;;15.70;65.80;;;;;;5055454;28;20131;-72
2021/12/19 07:55:18;;;;;;;2.15;1.10;;;16.30;66.10;;;;;;5053993;28;20146;-72
2021/12/19 07:57:45;;;;;;;2.05;1.45;;;17.10;66.30;;;;;;5054201;28;20159;-72
2021/12/19 08:00:12;;;;;;;1.98;1.00;;;16.30;66.20;;;;;;5053987;28;20044;-72
2021/12/19 08:02:39;;;;;;;2.75;1.60;;;16.30;65.80;;;;;;5053808;28;20089;-73
2021/12/19 08:05:06;;;;;;;1.80;1.10;;;15.70;65.70;;;;;;5053942;28;20055;-72
2021/12/19 08:07:33;;;;;;;2.17;1.33;;;16.30;66.20;;;;;;5054014;28;20708;-72
2021/12/19 08:10:12;;;;;;;2.90;1.20;;;16.20;63.40;;;;;;5055093;28;20166;-72
2021/12/19 08:12:40;;;;;;;1.67;1.08;;;16.30;66.00;;;;;;5053681;28;20127;-72
2021/12/19 08:15:07;;;;;;;2.70;1.20;;;15.80;65.90;;;;;;5054016;28;20060;-72
2021/12/19 08:17:33;;;;;;;1.55;1.00;;;15.40;65.40;;;;;;5053780;28;20085;-74
2021/12/19 08:20:00;;;;;;;3.75;1.20;;;15.80;65.80;;;;;;5053666;28;20136;-72
2021/12/19 08:22:28;;;;;;;2.75;1.20;;;16.30;65.90;;;;;;5053661;28;20124;-72
2021/12/19 08:24:57;;;;;;;1.92;0.95;;;16.20;66.20;;;;;;5053682;28;20076;-72
2021/12/19 08:27:23;;;;;;;1.83;1.00;;;16.30;66.20;;;;;;5054443;28;20055;-72
2021/12/19 08:29:53;;;;;;;2.65;1.30;;;16.30;62.50;;;;;;5053388;28;20123;-72
2021/12/19 08:32:20;;;;;;;1.77;1.10;;;15.70;65.60;;;;;;5053709;28;20456;-72
2021/12/19 08:34:47;;;;;;;2.47;1.10;;;16.10;65.80;;;;;;5053416;28;20145;-72
2021/12/19 08:37:15;;;;;;;1.73;1.20;;;16.50;66.00;;;;;;5053199;28;20476;-72
2021/12/19 08:39:42;;;;;;;2.05;1.10;;;;;;;;;;5053326;28;20076;-74
2021/12/19 08:42:10;;;;;;;1.30;0.98;;;16.20;66.10;;;;;;5053590;28;20522;-72
2021/12/19 08:44:37;;;;;;;1.73;1.00;;;16.20;62.60;;;;;;5065916;28;20056;-73
2021/12/19 08:47:06;;;;;;;2.40;1.40;;;16.00;65.80;;;;;;5073068;28;20106;-72
2021/12/19 08:49:34;;;;;;;2.13;1.10;;;15.60;65.50;;;;;;5073289;28;20115;-73
2021/12/19 08:52:01;;;;;;;2.53;1.10;;;17.20;63.00;;;;;;5073299;28;20481;-72
2021/12/19 08:54:28;;;;;;;1.80;1.10;;;16.30;66.10;;;;;;5072956;28;20490;-72
2021/12/19 08:56:54;;;;;;;0.98;0.80;;;16.40;65.80;;;;;;5073048;28;20143;-73
2021/12/19 08:59:21;;;;;;;2.97;1.42;;;16.50;66.10;;;;;;5072119;28;20060;-72
2021/12/19 09:01:48;;;;;;;1.95;1.17;;;16.90;66.20;;;;;;5071457;28;20568;-72
2021/12/19 09:04:16;;;;;;;2.83;1.20;;;16.30;66.10;;;;;;5073171;28;20413;-73
2021/12/19 09:06:43;;;;;;;2.28;1.20;;;;;;;;;;5072562;28;20080;-73
2021/12/19 09:09:10;;;;;;;1.70;1.13;;;16.40;66.20;;;;;;5073052;28;20127;-72
2021/12/19 09:11:37;;;;;;;3.53;1.30;;;15.80;65.60;;;;;;5072735;28;20128;-72
2021/12/19 09:14:04;;;;;;;1.90;1.00;;;16.30;64.10;;;;;;5072971;28;20131;-72
2021/12/19 09:16:30;;;;;;;1.55;1.02;;;16.10;66.10;;;;;;5072634;28;20505;-72
2021/12/19 09:18:57;;;;;;;4.00;1.27;;;;;;;;;;5070745;28;20072;-74
2021/12/19 09:21:26;;;;;;;2.47;1.20;;;16.40;66.10;;;;;;5072831;28;20080;-72
2021/12/19 09:23:52;;;;;;;3.08;1.13;;;16.30;66.20;;;;;;5072781;28;20147;-72
2021/12/19 09:26:19;;;;;;;1.75;1.00;;;15.70;65.50;;;;;;5071966;28;20095;-72
2021/12/19 09:28:46;;;;;;;1.80;1.13;;;15.60;65.50;;;;;;5072570;28;20055;-72
2021/12/19 09:31:13;;;;;;;2.72;1.13;;;16.30;66.10;;;;;;5072656;28;20131;-72
2021/12/19 09:33:39;;;;;;;1.80;1.02;;;16.30;66.10;;;;;;5072615;28;20474;-72
2021/12/19 09:36:06;;;;;;;2.08;1.10;;;16.00;63.20;;;;;;5070531;28;20087;-72
2021/12/19 09:38:35;;;;;;;1.55;1.10;;;16.40;66.20;;;;;;5072440;28;20049;-72
2021/12/19 09:41:12;;;;;;;1.73;1.10;;;16.40;66.20;;;;;;5071925;28;20044;-72
2021/12/19 09:43:45;;;;;;;1.65;1.02;;;16.30;66.10;;;;;;5072090;28;20061;-72
2021/12/19 09:46:12;;;;;;;2.60;1.00;;;16.40;66.20;;;;;;5072284;28;20131;-72
2021/12/19 09:48:40;;;;;;;3.00;1.08;;;16.40;65.90;;;;;;5071717;28;20052;-72
2021/12/19 09:51:07;;;;;;;2.15;1.20;;;16.50;66.20;;;;;;5070711;28;20059;-72
2021/12/19 09:53:38;;;;;;;1.95;1.30;;;16.40;66.10;;;;;;5052195;28;20409;-73
2021/12/19 09:56:05;;;;;;;1.92;1.00;;;16.30;65.70;;;;;;5052262;28;20080;-75
2021/12/19 09:58:33;;;;;;;1.73;1.00;;;16.30;66.00;;;;;;5052775;28;20064;-75
2021/12/19 10:01:00;;;;;;;1.92;1.05;;;16.40;65.80;;;;;;5052354;28;20049;-75
2021/12/19 10:03:26;;;;;;;3.25;1.35;;;16.50;65.80;;;;;;5052555;28;20132;-75
2021/12/19 10:06:18;;;;;;;1.45;1.10;;;16.50;66.10;;;;;;5052258;28;20116;-75
2021/12/19 10:08:48;;;;;;;2.58;1.20;;;15.90;63.90;;;;;;5053475;28;20131;-75
2021/12/19 10:11:34;;;;;;;1.67;0.98;;;15.60;65.40;;;;;;5051671;28;20053;-73
2021/12/19 10:14:01;;;;;;;2.90;1.05;;;;;;;;;;5052414;28;20485;-74
2021/12/19 10:16:29;;;;;;;2.80;1.27;;;16.40;66.10;;;;;;5052772;28;20053;-74
2021/12/19 10:18:57;;;;;;;2.17;1.10;;;15.50;65.40;;;;;;5051695;28;20053;-75
2021/12/19 10:21:24;;;;;;;2.15;1.10;;;16.60;65.90;;;;;;5051961;28;20053;-75
2021/12/19 10:23:53;;;;;;;2.10;1.17;;;16.30;60.10;;;;;;5051922;28;20501;-73
2021/12/19 10:26:19;;;;;;;2.17;1.02;;;16.30;63.30;;;;;;5052587;28;20057;-75
2021/12/19 10:28:50;;;;;;;2.63;1.13;;;16.20;66.00;;;;;;5061260;28;20131;-74
2021/12/19 10:31:17;;;;;;;3.22;1.20;;;16.30;66.00;;;;;;5072783;28;20127;-74
2021/12/19 10:33:44;;;;;;;2.10;1.05;;;;;;;;;;5071491;28;20059;-75
2021/12/19 10:36:11;;;;;;;1.60;1.20;;;16.40;66.10;;;;;;5071583;28;20569;-75
2021/12/19 10:38:39;;;;;;;2.30;1.10;;;15.70;65.60;;;;;;5071742;28;20067;-75
2021/12/19 10:41:13;;;;;;;2.75;1.05;;;15.70;65.40;;;;;;5071592;28;20545;-74
2021/12/19 10:43:46;;;;;;;2.25;1.40;;;16.30;60.10;;;;;;5069744;28;20059;-74
2021/12/19 10:46:13;;;;;;;1.92;1.20;;;15.60;65.70;;;;;;5071209;28;20052;-75
2021/12/19 10:48:40;;;;;;;2.03;1.17;;;15.90;65.50;;;;;;5071420;28;20131;-74
2021/12/19 10:51:07;;;;;;;1.52;1.00;;;15.50;65.30;;;;;;5071849;28;20573;-75
2021/12/19 10:53:36;;;;;;;2.70;1.30;;;16.30;60.10;;;;;;5071459;28;20087;-74
2021/12/19 10:56:05;;;;;;;2.47;1.30;;;16.40;66.00;;;;;;5071239;28;20553;-75
2021/12/19 10:58:37;;;;;;;2.10;1.20;;;16.30;60.00;;;;;;5057975;28;20077;-74
2021/12/19 11:01:17;;;;;;;2.58;1.10;;;16.30;65.60;;;;;;5034774;28;20044;-75
2021/12/19 11:03:47;;;;;;;2.05;1.10;;;16.50;65.90;;;;;;5051119;28;20057;-75
2021/12/19 11:06:19;;;;;;;2.25;1.30;;;17.00;60.40;;;;;;5051022;28;20056;-73
2021/12/19 11:08:47;;;;;;;1.88;1.10;;;15.80;65.50;;;;;;5051577;28;20247;-74
2021/12/19 11:11:29;;;;;;;1.92;1.20;;;16.60;66.10;;;;;;5051633;28;20551;-75
2021/12/19 11:13:58;;;;;;;2.22;1.20;;;17.00;66.10;;;;;;5054227;28;20102;-74
2021/12/19 11:16:25;;;;;;;1.88;1.10;;;;;;;;;;5071091;28;20458;-74
2021/12/19 11:18:52;;;;;;;3.42;1.17;;;16.40;65.90;;;;;;5071187;28;20139;-75
2021/12/19 11:21:19;;;;;;;2.20;1.10;;;17.00;66.40;;;;;;5070743;28;20159;-74
2021/12/19 11:23:46;;;;;;;2.50;1.20;;;15.70;65.30;;;;;;5076439;28;20493;-75
2021/12/19 11:26:13;;;;;;;2.58;1.20;;;;;;;;;;5077648;28;20131;-73
2021/12/19 11:28:39;;;;;;;2.80;1.02;;;16.50;65.90;;;;;;5078168;28;20143;-75
2021/12/19 11:31:08;;;;;;;2.22;1.38;;;16.50;66.00;;;;;;5070328;28;20131;-75
2021/12/19 11:33:39;;;;;;;2.05;1.23;;;16.30;65.90;;;;;;5057763;28;20144;-75
2021/12/19 11:36:06;;;;;;;1.83;1.10;;;15.90;65.80;;;;;;5057828;28;20061;-75
2021/12/19 11:38:32;;;;;;;2.92;1.17;;;15.70;65.60;;;;;;5057786;28;20136;-75
2021/12/19 11:41:07;;;;;;;3.58;1.50;;;16.50;63.00;;;;;;5057247;28;20531;-75
2021/12/19 11:43:36;;;;;;;1.42;1.00;;;16.40;65.90;;;;;;5058104;28;20084;-75
2021/12/19 11:46:10;;;;;;;2.75;1.00;;;16.30;60.00;;;;;;5057681;28;20091;-75
2021/12/19 11:48:39;;;;;;;2.63;1.37;;;15.70;61.30;;;;;;5058853;28;20084;-75
2021/12/19 11:51:08;;;;;;;3.28;1.17;;;16.40;66.00;;;;;;5058048;28;20051;-74
2021/12/19 11:53:36;;;;;;;2.33;1.20;;;16.10;65.60;;;;;;5057872;28;20155;-75
2021/12/19 11:56:09;;;;;;;2.60;1.13;;;16.30;60.00;;;;;;5057596;28;20061;-73
2021/12/19 11:58:45;;;;;;;2.88;1.27;;;17.10;66.30;;;;;;5057518;28;20063;-75
2021/12/19 12:01:13;;;;;;;2.80;1.13;;;16.30;65.90;;;;;;5057542;28;20045;-75
2021/12/19 12:03:55;;;;;;;3.15;1.40;;;15.60;65.30;;;;;;5057439;28;20136;-75
2021/12/19 12:06:33;;;;;;;3.13;1.20;;;16.20;60.00;;;;;;5058589;28;20091;-74
2021/12/19 12:09:12;;;;;;;3.00;1.20;;;16.30;60.00;;;;;;5057436;28;20084;-74
2021/12/19 12:11:40;;;;;;;1.48;1.10;;;17.30;66.50;;;;;;5057632;28;20048;-75
2021/12/19 12:14:20;;;;;;;2.72;1.10;;;16.40;65.90;;;;;;5057494;28;20045;-75
2021/12/19 12:16:52;;;;;;;2.03;0.93;;;17.10;66.40;;;;;;5057448;28;20088;-75
2021/12/19 12:19:35;;;;;;;3.63;1.48;;;16.30;65.60;;;;;;5058011;28;20103;-75
2021/12/19 12:22:44;;;;;;;2.33;1.30;;;16.70;65.80;;;;;;5058125;28;20091;-75
2021/12/19 12:25:20;;;;;;;2.25;1.30;;;16.30;65.90;;;;;;5019776;28;20539;-75
2021/12/19 12:27:50;;;;;;;3.28;1.40;;;15.50;65.50;;;;;;5019970;28;20092;-75
2021/12/19 12:30:18;;;;;;;3.40;1.50;;;15.50;65.20;;;;;;5039450;28;20186;-75
2021/12/19 12:32:45;;;;;;;2.92;1.20;;;16.50;65.80;;;;;;5057773;28;20116;-75
2021/12/19 12:35:13;;;;;;;3.38;1.30;;;15.70;65.60;;;;;;5054652;28;20510;-75
2021/12/19 12:37:41;;;;;;;2.70;1.30;;;;;;;;;;5053843;28;20157;-75
2021/12/19 12:40:20;;;;;;;2.95;1.40;;;16.30;66.00;;;;;;5055117;28;20052;-75
2021/12/19 12:43:12;;;;;;;2.42;1.25;;;16.40;65.90;;;;;;5065459;28;20076;-75
2021/12/19 12:46:15;;;;;;;3.63;1.58;;;16.40;65.80;;;;;;5060012;28;20084;-75
2021/12/19 12:48:56;;;;;;;1.95;1.10;;;16.50;66.10;;;;;;5074293;28;20131;-75
2021/12/19 12:51:29;;;;;;;2.92;1.20;;;16.80;66.00;;;;;;5073586;28;20051;-74
2021/12/19 12:53:57;;;;;;;2.15;1.33;;;16.50;65.90;;;;;;5073963;28;20132;-75
2021/12/19 12:56:29;;;;;;;5.55;1.55;;;16.40;65.70;;;;;;5072140;28;20091;-75
2021/12/19 12:58:56;;;;;;;3.17;1.35;;;16.40;66.10;;;;;;5073674;28;20059;-74
2021/12/19 13:01:29;;;;;;;2.30;1.20;;;17.20;61.10;;;;;;5073640;28;20106;-74
2021/12/19 13:04:04;;;;;;;2.92;1.30;;;16.00;65.70;;;;;;5073535;28;20117;-75
2021/12/19 13:06:40;;;;;;;3.20;1.63;;;15.90;65.60;;;;;;5073486;28;20139;-73
2021/12/19 13:09:14;;;;;;;3.00;1.17;;;16.40;65.90;;;;;;5073650;28;20457;-75
2021/12/19 13:11:42;;;;;;;3.83;1.42;;;;;;;;;;5073565;28;20584;-74
2021/12/19 13:14:17;;;;;;;3.70;1.48;;;17.00;66.00;;;;;;5071728;28;20489;-75
2021/12/19 13:16:48;;;;;;;3.30;1.40;;;16.00;63.40;;;;;;5073225;28;20078;-75
2021/12/19 13:19:35;;;;;;;1.70;1.20;;;16.30;59.90;;;;;;5073373;28;20056;-73
2021/12/19 13:22:03;;;;;;;3.60;1.30;;;16.40;60.00;;;;;;5073322;28;20164;-74
2021/12/19 13:24:31;;;;;;;1.90;1.10;;;15.80;62.30;;;;;;5074568;28;20476;-75
2021/12/19 13:27:06;;;;;;;2.38;1.20;;;16.30;59.90;;;;;;5073220;28;20056;-75
2021/12/19 13:29:32;;;;;;;1.98;1.20;;;16.40;65.60;;;;;;5071436;28;20080;-75
2021/12/19 13:32:20;;;;;;;2.60;1.30;;;16.50;65.60;;;;;;5073205;28;20127;-75
2021/12/19 13:34:47;;;;;;;3.83;1.40;;;15.60;65.20;;;;;;5073323;28;20135;-75
2021/12/19 13:37:15;;;;;;;2.28;1.35;;;16.80;65.80;;;;;;5072634;28;20136;-75
2021/12/19 13:39:43;;;;;;;1.77;1.27;;;15.80;65.50;;;;;;5073977;28;20564;-75
2021/12/19 13:42:11;;;;;;;3.15;1.30;;;15.80;65.10;;;;;;5072797;28;20374;-75
2021/12/19 13:44:37;;;;;;;1.58;1.10;;;17.30;66.00;;;;;;5073141;28;20084;-75
2021/12/19 13:47:12;;;;;;;1.65;1.13;;;16.50;65.60;;;;;;5069522;28;20557;-74
2021/12/19 13:49:39;;;;;;;4.10;1.50;;;16.20;65.70;;;;;;5072843;28;20056;-75
2021/12/19 13:52:06;;;;;;;2.70;1.25;;;17.30;66.30;;;;;;5072978;28;20075;-75
2021/12/19 13:54:37;;;;;;;2.58;1.30;;;16.50;65.50;;;;;;5072910;28;20139;-75
2021/12/19 13:57:17;;;;;;;2.40;1.15;;;16.00;65.60;;;;;;5072598;28;20118;-75
2021/12/19 13:59:44;;;;;;;2.42;1.10;;;16.90;66.10;;;;;;5072300;28;20059;-75
2021/12/19 14:02:11;;;;;;;3.78;1.15;;;;;;;;;;5072336;28;20072;-74